EZY146C EGKK-EGCC
Flight info
| Callsign | EZY146C |
|---|---|
| Flight time | 0h 40m |
| Altitude | 220 |
| Route | EGKK/26L LAM6M LAM N57 WELIN T420 ELVOS ELVO1M EGCC/23R |
| Aircraft | A320/M-VGD/N |
Departure
| Time | 2026-04-15 08:18 |
|---|---|
| Airport | London Gatwick Airport (EGKK) |
Arrival
| Time | 2026-04-15 08:58 |
|---|---|
| Airport | Manchester Airport (EGCC) |
| Time | Latitude | Longitude | Altitude | Speed | Heading |
|---|---|---|---|---|---|
| 2026-04-15 07:48 | 51.15929 | -0.17156 | 204 ft | 0 kts | 314° |
| 2026-04-15 08:09 | 51.15921 | -0.17144 | 215 ft | 2 kts | 314° |
| 2026-04-15 08:09 | 51.15909 | -0.17124 | 217 ft | 2 kts | 314° |
| 2026-04-15 08:10 | 51.15897 | -0.17105 | 215 ft | 2 kts | 314° |
| 2026-04-15 08:10 | 51.15885 | -0.17086 | 215 ft | 2 kts | 291° |
| 2026-04-15 08:10 | 51.15884 | -0.17061 | 216 ft | 0 kts | 229° |
| 2026-04-15 08:13 | 51.15870 | -0.17073 | 210 ft | 6 kts | 201° |
| 2026-04-15 08:13 | 51.15826 | -0.17098 | 209 ft | 8 kts | 219° |
| 2026-04-15 08:13 | 51.15806 | -0.17198 | 213 ft | 11 kts | 257° |
| 2026-04-15 08:14 | 51.15786 | -0.17338 | 204 ft | 14 kts | 258° |
| 2026-04-15 08:14 | 51.15752 | -0.17491 | 212 ft | 15 kts | 217° |
| 2026-04-15 08:14 | 51.15647 | -0.17473 | 214 ft | 16 kts | 167° |
| 2026-04-15 08:14 | 51.15531 | -0.17431 | 207 ft | 18 kts | 168° |
| 2026-04-15 08:15 | 51.15408 | -0.17388 | 209 ft | 18 kts | 168° |
| 2026-04-15 08:15 | 51.15289 | -0.17347 | 206 ft | 13 kts | 167° |
| 2026-04-15 08:15 | 51.15246 | -0.17236 | 211 ft | 14 kts | 80° |
| 2026-04-15 08:15 | 51.15267 | -0.17087 | 205 ft | 13 kts | 77° |
| 2026-04-15 08:16 | 51.15285 | -0.16953 | 202 ft | 11 kts | 78° |
| 2026-04-15 08:16 | 51.15285 | -0.16846 | 209 ft | 9 kts | 112° |
| 2026-04-15 08:16 | 51.15226 | -0.16809 | 201 ft | 10 kts | 169° |
| 2026-04-15 08:16 | 51.15144 | -0.16798 | 209 ft | 14 kts | 200° |
| 2026-04-15 08:17 | 51.15099 | -0.16937 | 205 ft | 15 kts | 258° |
| 2026-04-15 08:17 | 51.15067 | -0.17172 | 203 ft | 45 kts | 257° |
| 2026-04-15 08:17 | 51.14946 | -0.18032 | 203 ft | 111 kts | 257° |
| 2026-04-15 08:17 | 51.14747 | -0.19503 | 208 ft | 161 kts | 258° |
| 2026-04-15 08:18 | 51.14513 | -0.21328 | 697 ft | 169 kts | 256° |
| 2026-04-15 08:18 | 51.14268 | -0.23149 | 1456 ft | 168 kts | 252° |
| 2026-04-15 08:18 | 51.14008 | -0.25044 | 1883 ft | 185 kts | 253° |
| 2026-04-15 08:18 | 51.13729 | -0.27167 | 2310 ft | 205 kts | 259° |
| 2026-04-15 08:19 | 51.13937 | -0.29492 | 2942 ft | 224 kts | 290° |
| 2026-04-15 08:19 | 51.14950 | -0.31454 | 3672 ft | 240 kts | 322° |
| 2026-04-15 08:19 | 51.16569 | -0.32254 | 4281 ft | 253 kts | 0° |
| 2026-04-15 08:19 | 51.18237 | -0.31385 | 5118 ft | 258 kts | 38° |
| 2026-04-15 08:20 | 51.19300 | -0.29139 | 5897 ft | 256 kts | 76° |
| 2026-04-15 08:20 | 51.19694 | -0.26392 | 6725 ft | 255 kts | 83° |
| 2026-04-15 08:20 | 51.20015 | -0.23593 | 7497 ft | 258 kts | 85° |
| 2026-04-15 08:20 | 51.20332 | -0.20752 | 8270 ft | 263 kts | 85° |
| 2026-04-15 08:21 | 51.20677 | -0.17771 | 8691 ft | 286 kts | 84° |
| 2026-04-15 08:21 | 51.21069 | -0.14568 | 9253 ft | 300 kts | 83° |
| 2026-04-15 08:21 | 51.21493 | -0.11269 | 10014 ft | 306 kts | 83° |
| 2026-04-15 08:21 | 51.21940 | -0.07852 | 10416 ft | 326 kts | 82° |
| 2026-04-15 08:22 | 51.22421 | -0.04177 | 10662 ft | 350 kts | 82° |
| 2026-04-15 08:22 | 51.22933 | -0.00267 | 11004 ft | 367 kts | 81° |
| 2026-04-15 08:22 | 51.23465 | 0.03756 | 11494 ft | 374 kts | 81° |
| 2026-04-15 08:22 | 51.23998 | 0.07792 | 12159 ft | 378 kts | 81° |
| 2026-04-15 08:23 | 51.24537 | 0.11929 | 12850 ft | 383 kts | 81° |
| 2026-04-15 08:23 | 51.25079 | 0.16110 | 13531 ft | 387 kts | 80° |
| 2026-04-15 08:23 | 51.25626 | 0.20349 | 14123 ft | 391 kts | 81° |
| 2026-04-15 08:23 | 51.26157 | 0.24629 | 14718 ft | 394 kts | 81° |
| 2026-04-15 08:24 | 51.26666 | 0.28951 | 15319 ft | 398 kts | 82° |
| 2026-04-15 08:24 | 51.27240 | 0.33286 | 15910 ft | 403 kts | 74° |
| 2026-04-15 08:24 | 51.28459 | 0.37354 | 16495 ft | 410 kts | 57° |
| 2026-04-15 08:24 | 51.30401 | 0.40704 | 17089 ft | 415 kts | 37° |
| 2026-04-15 08:25 | 51.32923 | 0.42953 | 17960 ft | 418 kts | 18° |
| 2026-04-15 08:25 | 51.35767 | 0.43842 | 18486 ft | 418 kts | 359° |
| 2026-04-15 08:25 | 51.36748 | 0.43815 | 18649 ft | 417 kts | 352° |
| 2026-04-15 08:27 | 51.38601 | 0.43295 | 18943 ft | 415 kts | 340° |
| 2026-04-15 08:27 | 51.40116 | 0.42376 | 19210 ft | 412 kts | 329° |
| 2026-04-15 08:27 | 51.41519 | 0.41031 | 19491 ft | 408 kts | 319° |
| 2026-04-15 08:28 | 51.43739 | 0.38204 | 19977 ft | 408 kts | 316° |
| 2026-04-15 08:28 | 51.45959 | 0.35325 | 20488 ft | 411 kts | 316° |
| 2026-04-15 08:28 | 51.48185 | 0.32438 | 20999 ft | 413 kts | 316° |
| 2026-04-15 08:28 | 51.50436 | 0.29524 | 21501 ft | 416 kts | 316° |
| 2026-04-15 08:29 | 51.52696 | 0.26604 | 21949 ft | 418 kts | 316° |
| 2026-04-15 08:29 | 51.54945 | 0.23700 | 22081 ft | 421 kts | 316° |
| 2026-04-15 08:29 | 51.57250 | 0.20711 | 22100 ft | 429 kts | 316° |
| 2026-04-15 08:29 | 51.59578 | 0.17686 | 22102 ft | 431 kts | 316° |
| 2026-04-15 08:30 | 51.61912 | 0.14654 | 22100 ft | 431 kts | 316° |
| 2026-04-15 08:30 | 51.64244 | 0.11622 | 22097 ft | 431 kts | 316° |
| 2026-04-15 08:30 | 51.66577 | 0.08582 | 22095 ft | 431 kts | 316° |
| 2026-04-15 08:30 | 51.68907 | 0.05543 | 22092 ft | 431 kts | 316° |
| 2026-04-15 08:31 | 51.71241 | 0.02497 | 22091 ft | 431 kts | 316° |
| 2026-04-15 08:31 | 51.73578 | -0.00563 | 22043 ft | 432 kts | 316° |
| 2026-04-15 08:31 | 51.75912 | -0.03632 | 22036 ft | 433 kts | 315° |
| 2026-04-15 08:31 | 51.78248 | -0.06710 | 22028 ft | 434 kts | 316° |
| 2026-04-15 08:32 | 51.80592 | -0.09791 | 22026 ft | 435 kts | 316° |
| 2026-04-15 08:32 | 51.82943 | -0.12882 | 22034 ft | 435 kts | 316° |
| 2026-04-15 08:32 | 51.85286 | -0.15968 | 22073 ft | 435 kts | 316° |
| 2026-04-15 08:32 | 51.87631 | -0.19063 | 22072 ft | 435 kts | 316° |
| 2026-04-15 08:33 | 51.89979 | -0.22164 | 22070 ft | 435 kts | 316° |
| 2026-04-15 08:33 | 51.92290 | -0.25215 | 22069 ft | 435 kts | 316° |
| 2026-04-15 08:33 | 51.94661 | -0.28353 | 22067 ft | 435 kts | 316° |
| 2026-04-15 08:33 | 51.96971 | -0.31418 | 22065 ft | 435 kts | 316° |
| 2026-04-15 08:34 | 51.99309 | -0.34529 | 22061 ft | 434 kts | 315° |
| 2026-04-15 08:34 | 52.01673 | -0.37682 | 22057 ft | 434 kts | 315° |
| 2026-04-15 08:34 | 52.03976 | -0.40760 | 22034 ft | 434 kts | 315° |
| 2026-04-15 08:34 | 52.06306 | -0.43877 | 22045 ft | 434 kts | 315° |
| 2026-04-15 08:35 | 52.08640 | -0.47001 | 22041 ft | 434 kts | 315° |
| 2026-04-15 08:35 | 52.10974 | -0.50125 | 22038 ft | 434 kts | 315° |
| 2026-04-15 08:35 | 52.13308 | -0.53246 | 22037 ft | 435 kts | 315° |
| 2026-04-15 08:35 | 52.15647 | -0.56379 | 22036 ft | 435 kts | 315° |
| 2026-04-15 08:36 | 52.17976 | -0.59512 | 22037 ft | 435 kts | 315° |
| 2026-04-15 08:36 | 52.20305 | -0.62657 | 22035 ft | 435 kts | 315° |
| 2026-04-15 08:36 | 52.22632 | -0.65801 | 22034 ft | 435 kts | 315° |
| 2026-04-15 08:36 | 52.24963 | -0.68950 | 22032 ft | 435 kts | 315° |
| 2026-04-15 08:37 | 52.27292 | -0.72095 | 22028 ft | 435 kts | 315° |
| 2026-04-15 08:37 | 52.29624 | -0.75248 | 22040 ft | 435 kts | 315° |
| 2026-04-15 08:37 | 52.31957 | -0.78405 | 22036 ft | 435 kts | 315° |
| 2026-04-15 08:37 | 52.34287 | -0.81570 | 22030 ft | 435 kts | 315° |
| 2026-04-15 08:38 | 52.36617 | -0.84740 | 22031 ft | 435 kts | 315° |
| 2026-04-15 08:38 | 52.38947 | -0.87911 | 22021 ft | 436 kts | 315° |
| 2026-04-15 08:38 | 52.41276 | -0.91088 | 22021 ft | 435 kts | 315° |
| 2026-04-15 08:38 | 52.43601 | -0.94272 | 21997 ft | 434 kts | 315° |
| 2026-04-15 08:39 | 52.45867 | -0.97371 | 21730 ft | 427 kts | 315° |
| 2026-04-15 08:39 | 52.48141 | -1.00482 | 21483 ft | 424 kts | 315° |
| 2026-04-15 08:39 | 52.50406 | -1.03588 | 21215 ft | 424 kts | 315° |
| 2026-04-15 08:39 | 52.52669 | -1.06695 | 20960 ft | 423 kts | 315° |
| 2026-04-15 08:40 | 52.54926 | -1.09798 | 20700 ft | 422 kts | 315° |
| 2026-04-15 08:40 | 52.57172 | -1.12892 | 20433 ft | 421 kts | 315° |
| 2026-04-15 08:40 | 52.59412 | -1.15982 | 20170 ft | 419 kts | 315° |
| 2026-04-15 08:40 | 52.61643 | -1.19060 | 19952 ft | 418 kts | 315° |
| 2026-04-15 08:41 | 52.63864 | -1.22129 | 19878 ft | 416 kts | 315° |
| 2026-04-15 08:41 | 52.66086 | -1.25208 | 19893 ft | 417 kts | 315° |
| 2026-04-15 08:41 | 52.68301 | -1.28284 | 19882 ft | 416 kts | 315° |
| 2026-04-15 08:41 | 52.70569 | -1.31224 | 19427 ft | 415 kts | 321° |
| 2026-04-15 08:42 | 52.73015 | -1.33757 | 18902 ft | 414 kts | 323° |
| 2026-04-15 08:42 | 52.75455 | -1.36240 | 18496 ft | 411 kts | 323° |
| 2026-04-15 08:42 | 52.77881 | -1.38700 | 17959 ft | 408 kts | 323° |
| 2026-04-15 08:42 | 52.80296 | -1.41156 | 17397 ft | 405 kts | 323° |
| 2026-04-15 08:43 | 52.82686 | -1.43596 | 16879 ft | 402 kts | 323° |
| 2026-04-15 08:43 | 52.85054 | -1.46018 | 16387 ft | 398 kts | 323° |
| 2026-04-15 08:43 | 52.87397 | -1.48421 | 15917 ft | 395 kts | 323° |
| 2026-04-15 08:43 | 52.89725 | -1.50817 | 15442 ft | 392 kts | 323° |
| 2026-04-15 08:44 | 52.92029 | -1.53190 | 14951 ft | 390 kts | 323° |
| 2026-04-15 08:44 | 52.94295 | -1.55524 | 14452 ft | 388 kts | 323° |
| 2026-04-15 08:44 | 52.96583 | -1.57879 | 13979 ft | 386 kts | 323° |
| 2026-04-15 08:44 | 52.98853 | -1.60222 | 13484 ft | 383 kts | 323° |
| 2026-04-15 08:45 | 53.01100 | -1.62550 | 12995 ft | 379 kts | 323° |
| 2026-04-15 08:45 | 53.03307 | -1.64832 | 12826 ft | 366 kts | 323° |
| 2026-04-15 08:45 | 53.05338 | -1.67209 | 12699 ft | 349 kts | 314° |
| 2026-04-15 08:45 | 53.06981 | -1.70023 | 12550 ft | 331 kts | 304° |
| 2026-04-15 08:46 | 53.08458 | -1.72891 | 12426 ft | 321 kts | 304° |
| 2026-04-15 08:46 | 53.09893 | -1.75665 | 12294 ft | 311 kts | 304° |
| 2026-04-15 08:46 | 53.11292 | -1.78370 | 12059 ft | 306 kts | 304° |
| 2026-04-15 08:46 | 53.12670 | -1.81043 | 11752 ft | 304 kts | 304° |
| 2026-04-15 08:47 | 53.14042 | -1.83712 | 11423 ft | 302 kts | 304° |
| 2026-04-15 08:47 | 53.15450 | -1.86324 | 10873 ft | 311 kts | 313° |
| 2026-04-15 08:47 | 53.17389 | -1.88173 | 10192 ft | 332 kts | 341° |
| 2026-04-15 08:47 | 53.19654 | -1.88681 | 10064 ft | 324 kts | 354° |
| 2026-04-15 08:48 | 53.21843 | -1.88817 | 9933 ft | 305 kts | 355° |
| 2026-04-15 08:48 | 53.23912 | -1.88910 | 9603 ft | 293 kts | 355° |
| 2026-04-15 08:48 | 53.25934 | -1.88994 | 9081 ft | 289 kts | 355° |
| 2026-04-15 08:48 | 53.27935 | -1.89077 | 8533 ft | 287 kts | 355° |
| 2026-04-15 08:49 | 53.29253 | -1.89130 | 8165 ft | 286 kts | 355° |
| 2026-04-15 08:49 | 53.31225 | -1.89209 | 7951 ft | 280 kts | 355° |
| 2026-04-15 08:49 | 53.33150 | -1.89279 | 7945 ft | 276 kts | 355° |
| 2026-04-15 08:49 | 53.35069 | -1.89357 | 7944 ft | 276 kts | 355° |
| 2026-04-15 08:50 | 53.36987 | -1.89436 | 7925 ft | 275 kts | 355° |
| 2026-04-15 08:50 | 53.38898 | -1.89514 | 7610 ft | 275 kts | 355° |
| 2026-04-15 08:50 | 53.40801 | -1.89582 | 7287 ft | 272 kts | 355° |
| 2026-04-15 08:50 | 53.42691 | -1.89643 | 6790 ft | 272 kts | 355° |
| 2026-04-15 08:51 | 53.44574 | -1.89706 | 6330 ft | 270 kts | 355° |
| 2026-04-15 08:51 | 53.46441 | -1.89772 | 5966 ft | 265 kts | 355° |
| 2026-04-15 08:51 | 53.48273 | -1.89834 | 5523 ft | 262 kts | 354° |
| 2026-04-15 08:51 | 53.50001 | -1.90471 | 5097 ft | 248 kts | 325° |
| 2026-04-15 08:52 | 53.51208 | -1.92325 | 4673 ft | 227 kts | 289° |
| 2026-04-15 08:52 | 53.51373 | -1.94700 | 4484 ft | 192 kts | 244° |
| 2026-04-15 08:52 | 53.50601 | -1.96281 | 4329 ft | 169 kts | 213° |
| 2026-04-15 08:52 | 53.49732 | -1.97571 | 4182 ft | 168 kts | 228° |
| 2026-04-15 08:53 | 53.49002 | -1.99087 | 3985 ft | 167 kts | 228° |
| 2026-04-15 08:53 | 53.48286 | -2.00596 | 3844 ft | 161 kts | 228° |
| 2026-04-15 08:53 | 53.47620 | -2.01996 | 3787 ft | 153 kts | 227° |
| 2026-04-15 08:53 | 53.46961 | -2.03377 | 3611 ft | 150 kts | 227° |
| 2026-04-15 08:54 | 53.46312 | -2.04734 | 3441 ft | 148 kts | 227° |
| 2026-04-15 08:54 | 53.45665 | -2.06086 | 3251 ft | 148 kts | 226° |
| 2026-04-15 08:54 | 53.45025 | -2.07422 | 3069 ft | 145 kts | 226° |
| 2026-04-15 08:54 | 53.44393 | -2.08741 | 2870 ft | 145 kts | 226° |
| 2026-04-15 08:55 | 53.43758 | -2.10066 | 2680 ft | 146 kts | 226° |
| 2026-04-15 08:55 | 53.43117 | -2.11401 | 2476 ft | 147 kts | 226° |
| 2026-04-15 08:55 | 53.42423 | -2.12842 | 2300 ft | 165 kts | 226° |
| 2026-04-15 08:55 | 53.41705 | -2.14340 | 2071 ft | 165 kts | 225° |
| 2026-04-15 08:56 | 53.41020 | -2.15776 | 1828 ft | 147 kts | 225° |
| 2026-04-15 08:56 | 53.40403 | -2.17062 | 1633 ft | 138 kts | 224° |
| 2026-04-15 08:56 | 53.39814 | -2.18284 | 1451 ft | 133 kts | 225° |
| 2026-04-15 08:56 | 53.39235 | -2.19488 | 1282 ft | 133 kts | 224° |
| 2026-04-15 08:57 | 53.38661 | -2.20688 | 1132 ft | 132 kts | 224° |
| 2026-04-15 08:57 | 53.38074 | -2.21905 | 919 ft | 134 kts | 227° |
| 2026-04-15 08:57 | 53.37493 | -2.23135 | 781 ft | 136 kts | 227° |
| 2026-04-15 08:57 | 53.36906 | -2.24342 | 577 ft | 133 kts | 225° |
| 2026-04-15 08:58 | 53.36327 | -2.25525 | 364 ft | 133 kts | 227° |
| 2026-04-15 08:58 | 53.35328 | -2.27587 | 257 ft | 72 kts | 231° |
| 2026-04-15 08:58 | 53.35100 | -2.28060 | 239 ft | 43 kts | 232° |
| 2026-04-15 08:59 | 53.34973 | -2.28386 | 236 ft | 25 kts | 250° |
| 2026-04-15 08:59 | 53.34941 | -2.28618 | 233 ft | 13 kts | 266° |
| 2026-04-15 08:59 | 53.34973 | -2.28751 | 231 ft | 13 kts | 328° |
| 2026-04-15 08:59 | 53.35038 | -2.28699 | 232 ft | 9 kts | 49° |
| 2026-04-15 09:00 | 53.35075 | -2.28627 | 233 ft | 10 kts | 51° |
| 2026-04-15 09:00 | 53.35139 | -2.28492 | 230 ft | 18 kts | 51° |
| 2026-04-15 09:00 | 53.35224 | -2.28320 | 233 ft | 20 kts | 50° |
| 2026-04-15 09:00 | 53.35333 | -2.28187 | 237 ft | 18 kts | 22° |
| 2026-04-15 09:01 | 53.35444 | -2.28149 | 238 ft | 15 kts | 11° |
| 2026-04-15 09:01 | 53.35532 | -2.28079 | 239 ft | 13 kts | 38° |
| 2026-04-15 09:01 | 53.35585 | -2.27983 | 243 ft | 8 kts | 51° |
| 2026-04-15 09:01 | 53.35608 | -2.27935 | 245 ft | 6 kts | 51° |
| 2026-04-15 09:02 | 53.35683 | -2.27884 | 247 ft | 13 kts | 7° |
| 2026-04-15 09:02 | 53.35770 | -2.27868 | 247 ft | 12 kts | 6° |
| 2026-04-15 09:02 | 53.35847 | -2.27857 | 247 ft | 10 kts | 5° |
| 2026-04-15 09:02 | 53.35920 | -2.27844 | 247 ft | 11 kts | 6° |
| 2026-04-15 09:03 | 53.35992 | -2.27859 | 247 ft | 10 kts | 320° |
| 2026-04-15 09:03 | 53.36035 | -2.27945 | 247 ft | 9 kts | 311° |
| 2026-04-15 09:03 | 53.36077 | -2.28022 | 247 ft | 9 kts | 312° |
| 2026-04-15 09:03 | 53.36117 | -2.28093 | 247 ft | 8 kts | 317° |
| 2026-04-15 09:04 | 53.36159 | -2.28148 | 247 ft | 7 kts | 333° |
| 2026-04-15 09:04 | 53.36205 | -2.28138 | 247 ft | 7 kts | 26° |
| 2026-04-15 09:04 | 53.36243 | -2.28101 | 247 ft | 6 kts | 31° |
| 2026-04-15 09:04 | 53.36278 | -2.28070 | 247 ft | 5 kts | 20° |
| 2026-04-15 09:05 | 53.36312 | -2.28049 | 247 ft | 6 kts | 22° |
| 2026-04-15 09:05 | 53.36352 | -2.27998 | 247 ft | 7 kts | 43° |
| 2026-04-15 09:05 | 53.36386 | -2.27934 | 247 ft | 8 kts | 63° |
| 2026-04-15 09:05 | 53.36378 | -2.27845 | 247 ft | 9 kts | 128° |
| 2026-04-15 09:06 | 53.36342 | -2.27754 | 247 ft | 10 kts | 109° |
| 2026-04-15 09:06 | 53.36360 | -2.27687 | 247 ft | 7 kts | 14° |
| 2026-04-15 09:06 | 53.36401 | -2.27652 | 247 ft | 6 kts | 40° |
| 2026-04-15 09:06 | 53.36405 | -2.27646 | 247 ft | 0 kts | 41° |